createdAt,value
2019-05-17T00:00:37.122Z,11.6
2019-05-17T00:05:37.478Z,11.5
2019-05-17T00:10:38.944Z,11.5
2019-05-17T00:15:41.228Z,11.4
2019-05-17T00:20:43.629Z,11.4
2019-05-17T00:25:47.342Z,11.4
2019-05-17T00:30:48.237Z,11.3
2019-05-17T00:35:50.491Z,11.3
2019-05-17T00:40:52.923Z,11.4
2019-05-17T00:45:57.307Z,11.3
2019-05-17T00:51:02.245Z,11.2
2019-05-17T00:55:59.668Z,11.2
2019-05-17T01:01:02.038Z,11.1
2019-05-17T01:06:06.288Z,11.1
2019-05-17T01:11:07.113Z,11.1
2019-05-17T01:16:08.860Z,11.1
2019-05-17T01:21:11.063Z,11.1
2019-05-17T01:26:13.456Z,10.9
2019-05-17T01:31:17.227Z,10.9
2019-05-17T01:36:17.932Z,10.9
2019-05-17T01:41:20.428Z,10.9
2019-05-17T01:46:22.624Z,10.9
2019-05-17T01:51:26.338Z,10.9
2019-05-17T01:56:27.109Z,10.9
2019-05-17T02:01:29.487Z,10.9
2019-05-17T02:06:31.838Z,10.8
2019-05-17T02:11:34.098Z,10.8
2019-05-17T02:16:37.605Z,10.7
2019-05-17T02:21:39.129Z,10.7
2019-05-17T02:26:41.028Z,10.6
2019-05-17T02:31:45.113Z,10.6
2019-05-17T02:36:45.535Z,10.5
2019-05-17T02:41:47.797Z,10.5
2019-05-17T02:46:53.493Z,10.5
2019-05-17T02:51:52.848Z,10.5
2019-05-17T02:56:54.784Z,10.5
2019-05-17T03:01:57.083Z,10.5
2019-05-17T03:06:59.399Z,10.4
2019-05-17T03:12:03.421Z,10.3
2019-05-17T03:17:03.959Z,10.3
2019-05-17T03:22:07.769Z,10.2
2019-05-17T03:27:08.536Z,10.2
2019-05-17T03:32:16.787Z,10.2
2019-05-17T03:37:16.032Z,10.2
2019-05-17T03:42:15.370Z,10.2
2019-05-17T03:47:17.605Z,10
2019-05-17T03:52:22.339Z,10
2019-05-17T03:57:23.951Z,10.1
2019-05-17T04:02:24.658Z,10.1
2019-05-17T04:07:26.889Z,10
2019-05-17T04:12:29.098Z,10.1
2019-05-17T04:17:32.846Z,10.1
2019-05-17T04:22:34.097Z,10.2
2019-05-17T04:27:35.978Z,10.2
2019-05-17T04:32:38.363Z,10.2
2019-05-17T04:37:43.877Z,10.2
2019-05-17T04:42:44.011Z,10.1
2019-05-17T04:47:45.109Z,10.1
2019-05-17T04:52:47.462Z,10.1
2019-05-17T04:57:53.044Z,10.1
2019-05-17T05:02:52.740Z,10.1
2019-05-17T05:07:54.390Z,10.2
2019-05-17T05:12:56.807Z,10.2
2019-05-17T05:17:58.861Z,10.1
2019-05-17T05:23:02.696Z,10.1
2019-05-17T05:28:03.551Z,10.2
2019-05-17T05:33:05.879Z,10.2
2019-05-17T05:38:08.128Z,10.3
2019-05-17T05:43:11.937Z,10.2
2019-05-17T05:48:13.188Z,10.2
2019-05-17T05:53:15.156Z,10.2
2019-05-17T05:58:17.912Z,10.1
2019-05-17T06:03:19.652Z,10.3
2019-05-17T06:08:22.769Z,10.4
2019-05-17T06:13:24.191Z,10.6
2019-05-17T06:18:26.415Z,10.7
2019-05-17T06:23:28.821Z,10.9
2019-05-17T06:28:31.952Z,10.9
2019-05-17T06:33:34.709Z,11
2019-05-17T06:38:35.813Z,11.1
2019-05-17T06:43:38.596Z,11.1
2019-05-17T06:48:42.300Z,11.2
2019-05-17T06:53:43.601Z,11.2
2019-05-17T06:58:44.830Z,11.2
2019-05-17T07:03:49.419Z,11.2
2019-05-17T07:08:49.621Z,11.1
2019-05-17T07:13:51.692Z,11.1
2019-05-17T07:18:54.032Z,11.2
2019-05-17T07:23:56.416Z,11.2
2019-05-17T07:28:59.284Z,11.2
2019-05-17T07:34:00.959Z,11.1
2019-05-17T07:39:03.240Z,11.1
2019-05-17T07:44:05.563Z,11.1
2019-05-17T07:49:07.700Z,11.1
2019-05-17T07:54:10.466Z,11.2
2019-05-17T07:59:12.404Z,11.4
2019-05-17T08:04:14.722Z,11.5
2019-05-17T08:09:17.113Z,11.7
2019-05-17T08:14:29.285Z,11.7
2019-05-17T08:19:21.505Z,11.7
2019-05-17T08:24:23.955Z,11.5
2019-05-17T08:29:26.136Z,11.4
2019-05-17T08:34:29.286Z,11.5
2019-05-17T08:39:30.786Z,11.6
2019-05-17T08:44:33.100Z,11.7
2019-05-17T08:49:35.253Z,11.7
2019-05-17T08:54:42.582Z,11.6
2019-05-17T08:59:40.577Z,11.7
2019-05-17T09:04:42.349Z,11.9
2019-05-17T09:09:44.419Z,12
2019-05-17T09:14:46.736Z,11.8
2019-05-17T09:19:50.956Z,11.8
2019-05-17T09:24:51.400Z,12.1
2019-05-17T09:29:53.591Z,12.3
2019-05-17T09:34:55.935Z,12.3
2019-05-17T09:39:59.822Z,12.3
2019-05-17T09:45:00.596Z,12.1
2019-05-17T09:50:02.901Z,12
2019-05-17T09:55:05.100Z,12.1
2019-05-17T10:00:09.728Z,12.1
2019-05-17T10:05:10.584Z,12.1
2019-05-17T10:10:12.020Z,12.2
2019-05-17T10:15:14.361Z,12.2
2019-05-17T10:20:16.918Z,12.2
2019-05-17T10:25:20.108Z,12
2019-05-17T10:30:21.318Z,12.1
2019-05-17T10:35:23.743Z,12.3
2019-05-17T10:40:25.851Z,12.5
2019-05-17T10:45:30.334Z,12.5
2019-05-17T10:50:30.497Z,12.5
2019-05-17T10:55:32.627Z,12.3
2019-05-17T11:00:35.033Z,12.3
2019-05-17T11:05:39.917Z,12.4
2019-05-17T11:10:39.579Z,12.5
2019-05-17T11:15:41.894Z,12.6
2019-05-17T11:20:44.140Z,12.7
2019-05-17T11:25:46.873Z,12.8
2019-05-17T11:30:48.718Z,12.9
2019-05-17T11:35:51.087Z,13
2019-05-17T11:40:53.258Z,13.2
2019-05-17T11:45:55.594Z,13.1
2019-05-17T11:50:58.000Z,13.3
2019-05-17T11:56:00.225Z,13.3
2019-05-17T12:01:02.522Z,13.3
2019-05-17T12:06:04.711Z,13.3
2019-05-17T12:11:07.155Z,13.3
2019-05-17T12:16:09.429Z,13.3
2019-05-17T12:21:11.689Z,13.2
2019-05-17T12:26:13.919Z,13.1
2019-05-17T12:31:16.305Z,13
2019-05-17T12:36:18.635Z,13
2019-05-17T12:41:20.939Z,13
2019-05-17T12:46:23.323Z,13
2019-05-17T12:51:25.634Z,13
2019-05-17T12:56:27.702Z,13.1
2019-05-17T13:01:29.944Z,13
2019-05-17T13:06:32.399Z,13
2019-05-17T13:11:34.544Z,13
2019-05-17T13:16:36.934Z,13
2019-05-17T13:21:39.191Z,13.1
2019-05-17T13:26:41.668Z,13.3
2019-05-17T13:31:43.827Z,13.4
2019-05-17T13:36:46.232Z,13.4
2019-05-17T13:41:48.412Z,13.3
2019-05-17T13:46:50.600Z,13.2
2019-05-17T13:51:52.945Z,13.2
2019-05-17T13:56:55.385Z,13.2
2019-05-17T14:01:57.666Z,13.4
2019-05-17T14:06:59.838Z,13.5
2019-05-17T14:12:02.197Z,13.6
2019-05-17T14:17:04.507Z,13.8
2019-05-17T14:22:06.926Z,13.9
2019-05-17T14:27:09.250Z,14
2019-05-17T14:32:11.557Z,13.9
2019-05-17T14:37:13.563Z,13.7
2019-05-17T14:42:15.978Z,13.5
2019-05-17T14:47:18.386Z,13.4
2019-05-17T14:52:20.503Z,13.3
2019-05-17T14:57:22.882Z,13.2
2019-05-17T15:02:25.048Z,13.2
2019-05-17T15:07:27.502Z,13.3
2019-05-17T15:12:29.604Z,13.3
2019-05-17T15:17:34.943Z,13.3
2019-05-17T15:22:34.284Z,13.3
2019-05-17T15:27:36.585Z,13.3
2019-05-17T15:32:38.914Z,13.3
2019-05-17T15:37:41.085Z,13.3
2019-05-17T15:42:44.635Z,13.4
2019-05-17T15:47:45.775Z,13.4
2019-05-17T15:52:48.186Z,13.5
2019-05-17T15:57:50.389Z,13.6
2019-05-17T16:02:52.582Z,13.6
2019-05-17T16:07:55.024Z,13.7
2019-05-17T16:13:02.336Z,13.8
2019-05-17T16:17:59.557Z,13.9
2019-05-17T16:23:01.867Z,14
2019-05-17T16:28:03.993Z,13.9
2019-05-17T16:33:06.469Z,13.8
2019-05-17T16:38:08.728Z,13.8
2019-05-17T16:43:18.235Z,13.6
2019-05-17T16:48:13.224Z,13.5
2019-05-17T16:53:15.615Z,13.5
2019-05-17T16:58:18.039Z,13.5
2019-05-17T17:03:20.071Z,13.5
2019-05-17T17:08:22.370Z,13.5
2019-05-17T17:13:32.674Z,13.5
2019-05-17T17:18:26.983Z,13.5
2019-05-17T17:23:29.352Z,13.5
2019-05-17T17:28:31.566Z,13.5
2019-05-17T17:33:33.910Z,13.4
2019-05-17T17:38:36.243Z,13.3
2019-05-17T17:43:38.419Z,13.2
2019-05-17T17:48:40.853Z,13.3
2019-05-17T17:53:43.198Z,13.1
2019-05-17T17:58:45.481Z,13.1
2019-05-17T18:03:47.662Z,13.1
2019-05-17T18:08:49.881Z,13
2019-05-17T18:13:52.155Z,13
2019-05-17T18:18:54.657Z,13.1
2019-05-17T18:23:56.904Z,13
2019-05-17T18:28:59.128Z,13
2019-05-17T18:34:01.431Z,12.9
2019-05-17T18:39:03.714Z,12.9
2019-05-17T18:44:06.068Z,12.8
2019-05-17T18:49:08.204Z,12.8
2019-05-17T18:54:10.557Z,12.7
2019-05-17T18:59:12.880Z,12.6
2019-05-17T19:04:15.241Z,12.6
2019-05-17T19:09:17.476Z,12.4
2019-05-17T19:14:19.770Z,12.3
2019-05-17T19:19:22.080Z,12.1
2019-05-17T19:24:24.393Z,12.1
2019-05-17T19:29:26.694Z,12
2019-05-17T19:34:28.903Z,11.9
2019-05-17T19:39:31.344Z,11.9
2019-05-17T19:44:33.443Z,11.7
2019-05-17T19:49:35.776Z,11.6
2019-05-17T19:54:38.264Z,11.6
2019-05-17T19:59:40.359Z,11.5
2019-05-17T20:04:42.693Z,11.5
2019-05-17T20:09:45.016Z,11.5
2019-05-17T20:14:47.306Z,11.5
2019-05-17T20:19:49.523Z,11.5
2019-05-17T20:24:52.166Z,11.5
2019-05-17T20:29:54.291Z,11.5
2019-05-17T20:34:56.612Z,11.4
2019-05-17T20:39:58.731Z,11.4
2019-05-17T20:45:01.059Z,11.4
2019-05-17T20:50:03.331Z,11.4
2019-05-17T20:55:05.772Z,11.3
2019-05-17T21:00:07.923Z,11.2
2019-05-17T21:05:10.404Z,11.2
2019-05-17T21:10:12.729Z,11.2
2019-05-17T21:15:15.005Z,11.2
2019-05-17T21:20:17.153Z,11.1
2019-05-17T21:25:19.455Z,11.1
2019-05-17T21:30:21.780Z,11
2019-05-17T21:35:24.106Z,11
2019-05-17T21:40:26.387Z,10.9
2019-05-17T21:45:28.793Z,10.8
2019-05-17T21:50:30.971Z,10.8
2019-05-17T21:55:33.165Z,10.8
2019-05-17T22:00:35.409Z,10.7
2019-05-17T22:05:37.801Z,10.6
2019-05-17T22:10:40.266Z,10.5
2019-05-17T22:15:42.343Z,10.4
2019-05-17T22:20:44.691Z,10.3
2019-05-17T22:25:46.890Z,10.2
2019-05-17T22:30:49.312Z,10.3
2019-05-17T22:35:52.461Z,10.2
2019-05-17T22:40:53.962Z,10.2
2019-05-17T22:45:56.094Z,10.2
2019-05-17T22:50:58.476Z,10.2
2019-05-17T22:56:00.799Z,10.2
2019-05-17T23:01:03.062Z,10.2
2019-05-17T23:06:05.413Z,10.2
2019-05-17T23:11:07.615Z,10.3
2019-05-17T23:16:09.809Z,10.2
2019-05-17T23:21:12.152Z,10.2
2019-05-17T23:26:14.610Z,10.2
2019-05-17T23:31:16.894Z,10.2
2019-05-17T23:36:19.026Z,10.2
2019-05-17T23:41:21.378Z,10.2
2019-05-17T23:46:23.797Z,10.2
2019-05-17T23:51:25.947Z,10.2
2019-05-17T23:56:28.179Z,10.2
